createdAt,value
2018-01-04T00:00:23.142Z,5.49
2018-01-04T00:02:49.172Z,5.53
2018-01-04T00:05:15.208Z,5.57
2018-01-04T00:07:41.254Z,5.59
2018-01-04T00:10:09.349Z,5.59
2018-01-04T00:15:06.990Z,5.61
2018-01-04T00:20:05.950Z,5.61
2018-01-04T00:22:31.952Z,5.61
2018-01-04T00:24:57.984Z,5.59
2018-01-04T00:27:24.073Z,5.60
2018-01-04T00:29:50.080Z,5.57
2018-01-04T00:32:16.174Z,5.58
2018-01-04T00:34:42.256Z,5.54
2018-01-04T00:37:08.265Z,5.54
2018-01-04T00:39:34.296Z,5.53
2018-01-04T00:42:00.317Z,5.53
2018-01-04T00:44:26.348Z,5.51
2018-01-04T00:46:52.345Z,5.53
2018-01-04T00:49:18.416Z,5.54
2018-01-04T00:51:44.472Z,5.56
2018-01-04T00:54:10.484Z,5.56
2018-01-04T00:56:36.565Z,5.56
2018-01-04T00:59:02.522Z,5.57
2018-01-04T01:01:28.533Z,5.56
2018-01-04T01:03:54.566Z,5.55
2018-01-04T01:06:20.590Z,5.53
2018-01-04T01:08:46.648Z,5.51
2018-01-04T01:11:12.721Z,5.55
2018-01-04T01:13:38.769Z,5.57
2018-01-04T01:16:04.813Z,5.60
2018-01-04T01:18:30.901Z,5.57
2018-01-04T01:20:56.921Z,5.56
2018-01-04T01:23:22.941Z,5.57
2018-01-04T01:25:49.040Z,5.58
2018-01-04T01:28:15.065Z,5.59
2018-01-04T01:30:41.100Z,5.58
2018-01-04T01:33:07.114Z,5.59
2018-01-04T01:35:33.136Z,5.60
2018-01-04T01:37:59.199Z,5.59
2018-01-04T01:40:25.168Z,5.57
2018-01-04T01:42:51.215Z,5.56
2018-01-04T01:47:49.021Z,5.57
2018-01-04T01:50:15.139Z,5.58
2018-01-04T01:52:41.233Z,5.60
2018-01-04T01:55:07.300Z,5.64
2018-01-04T01:57:33.333Z,5.66
2018-01-04T01:59:59.276Z,5.68
2018-01-04T02:02:28.128Z,5.66
2018-01-04T02:04:54.166Z,5.63
2018-01-04T02:07:20.220Z,5.61
2018-01-04T02:09:46.211Z,5.61
2018-01-04T02:12:12.237Z,5.61
2018-01-04T02:14:38.233Z,5.62
2018-01-04T02:17:04.281Z,5.60
2018-01-04T02:19:42.492Z,5.49
2018-01-04T02:22:21.264Z,5.39
2018-01-04T02:24:59.550Z,5.31
2018-01-04T02:27:37.765Z,5.27
2018-01-04T02:30:16.005Z,5.27
2018-01-04T02:32:54.381Z,5.22
2018-01-04T02:35:36.353Z,5.17
2018-01-04T02:38:14.521Z,5.16
2018-01-04T02:40:51.583Z,5.13
2018-01-04T02:43:29.702Z,5.10
2018-01-04T02:48:57.757Z,5.04
2018-01-04T02:51:23.857Z,5.03
2018-01-04T02:53:49.873Z,5.02
2018-01-04T02:56:15.948Z,5.00
2018-01-04T02:58:42.006Z,4.97
2018-01-04T03:01:08.047Z,4.95
2018-01-04T03:03:34.072Z,4.95
2018-01-04T03:06:00.093Z,4.93
2018-01-04T03:08:26.137Z,4.90
2018-01-04T03:10:52.148Z,4.86
2018-01-04T03:13:18.224Z,4.81
2018-01-04T03:15:44.193Z,4.76
2018-01-04T03:18:10.212Z,4.73
2018-01-04T03:20:36.245Z,4.69
2018-01-04T03:23:08.481Z,4.64
2018-01-04T03:25:40.521Z,4.58
2018-01-04T03:28:12.601Z,4.54
2018-01-04T03:30:44.778Z,4.49
2018-01-04T03:33:16.809Z,4.48
2018-01-04T03:35:48.833Z,4.50
2018-01-04T03:38:20.936Z,4.51
2018-01-04T03:40:53.002Z,4.55
2018-01-04T03:43:25.039Z,4.57
2018-01-04T03:45:57.105Z,4.67
2018-01-04T03:48:27.008Z,4.68
2018-01-04T03:50:59.277Z,4.66
2018-01-04T03:53:31.395Z,4.68
2018-01-04T03:56:03.501Z,4.71
2018-01-04T03:58:35.562Z,4.67
2018-01-04T04:01:07.685Z,4.71
2018-01-04T04:03:33.665Z,4.71
2018-01-04T04:06:05.786Z,4.73
2018-01-04T04:08:37.875Z,4.74
2018-01-04T04:11:05.763Z,4.75
2018-01-04T04:13:31.749Z,4.76
2018-01-04T04:15:57.837Z,4.78
2018-01-04T04:18:23.886Z,4.81
2018-01-04T04:20:49.973Z,4.86
2018-01-04T04:23:15.985Z,4.88
2018-01-04T04:25:42.032Z,4.86
2018-01-04T04:28:08.029Z,4.84
2018-01-04T04:30:34.026Z,4.88
2018-01-04T04:33:00.068Z,4.86
2018-01-04T04:35:26.156Z,4.85
2018-01-04T04:37:52.231Z,4.84
2018-01-04T04:40:18.250Z,4.82
2018-01-04T04:42:44.336Z,4.83
2018-01-04T04:45:10.334Z,4.80
2018-01-04T04:47:36.365Z,4.81
2018-01-04T04:50:02.496Z,4.82
2018-01-04T04:52:28.577Z,4.81
2018-01-04T04:54:54.600Z,4.82
2018-01-04T04:57:20.576Z,4.84
2018-01-04T04:59:46.645Z,4.86
2018-01-04T05:02:12.668Z,4.86
2018-01-04T05:04:38.721Z,4.87
2018-01-04T05:07:04.828Z,4.83
2018-01-04T05:09:30.901Z,4.86
2018-01-04T05:11:56.912Z,4.76
2018-01-04T05:14:22.936Z,4.84
2018-01-04T05:16:48.976Z,4.81
2018-01-04T05:19:15.017Z,4.92
2018-01-04T05:21:41.087Z,4.92
2018-01-04T05:24:07.108Z,4.97
2018-01-04T05:26:33.144Z,4.94
2018-01-04T05:28:59.192Z,4.99
2018-01-04T05:31:25.312Z,5.00
2018-01-04T05:33:51.297Z,5.04
2018-01-04T05:36:17.317Z,5.07
2018-01-04T05:38:43.313Z,5.04
2018-01-04T05:41:09.345Z,5.06
2018-01-04T05:43:35.415Z,5.07
2018-01-04T05:46:01.400Z,5.08
2018-01-04T05:48:27.645Z,5.08
2018-01-04T05:50:53.671Z,5.06
2018-01-04T05:53:19.674Z,5.06
2018-01-04T05:55:45.748Z,5.03
2018-01-04T05:58:11.796Z,5.01
2018-01-04T06:00:37.877Z,4.95
2018-01-04T06:03:03.877Z,4.88
2018-01-04T06:05:29.896Z,4.83
2018-01-04T06:07:55.881Z,4.79
2018-01-04T06:10:21.905Z,4.78
2018-01-04T06:12:47.933Z,4.80
2018-01-04T06:15:13.921Z,4.77
2018-01-04T06:17:41.900Z,4.80
2018-01-04T06:20:07.936Z,4.76
2018-01-04T06:22:33.965Z,4.78
2018-01-04T06:24:59.970Z,4.79
2018-01-04T06:27:26.869Z,4.81
2018-01-04T06:29:52.933Z,4.80
2018-01-04T06:32:18.933Z,4.81
2018-01-04T06:34:44.936Z,4.81
2018-01-04T06:37:11.017Z,4.81
2018-01-04T06:39:37.069Z,4.80
2018-01-04T06:42:03.076Z,4.81
2018-01-04T06:44:29.112Z,4.81
2018-01-04T06:46:55.437Z,4.81
2018-01-04T06:49:21.502Z,4.78
2018-01-04T06:51:47.517Z,4.78
2018-01-04T06:54:13.597Z,4.77
2018-01-04T06:56:39.640Z,4.77
2018-01-04T06:59:05.660Z,4.76
2018-01-04T07:01:31.780Z,4.78
2018-01-04T07:03:57.751Z,4.81
2018-01-04T07:06:23.815Z,4.78
2018-01-04T07:08:49.823Z,4.76
2018-01-04T07:11:15.832Z,4.74
2018-01-04T07:13:41.861Z,4.73
2018-01-04T07:16:07.880Z,4.77
2018-01-04T07:18:33.940Z,4.76
2018-01-04T07:20:59.938Z,4.74
2018-01-04T07:23:36.002Z,4.74
2018-01-04T07:26:02.077Z,4.73
2018-01-04T07:28:28.085Z,4.70
2018-01-04T07:30:54.141Z,4.68
2018-01-04T07:33:20.187Z,4.69
2018-01-04T07:35:46.233Z,4.64
2018-01-04T07:38:12.315Z,4.66
2018-01-04T07:40:38.365Z,4.64
2018-01-04T07:43:04.372Z,4.62
2018-01-04T07:45:30.418Z,4.62
2018-01-04T07:47:56.446Z,4.64
2018-01-04T07:50:22.505Z,4.64
2018-01-04T07:52:48.597Z,4.44
2018-01-04T07:55:14.588Z,4.69
2018-01-04T07:57:40.664Z,4.71
2018-01-04T08:00:06.733Z,4.73
2018-01-04T08:02:32.741Z,4.73
2018-01-04T08:04:58.773Z,4.75
2018-01-04T08:07:26.393Z,4.75
2018-01-04T08:09:52.357Z,4.77
2018-01-04T08:12:18.464Z,4.82
2018-01-04T08:14:44.495Z,4.81
2018-01-04T08:17:10.773Z,4.82
2018-01-04T08:19:36.830Z,4.84
2018-01-04T08:22:02.914Z,4.83
2018-01-04T08:24:28.981Z,4.83
2018-01-04T08:26:55.023Z,4.89
2018-01-04T08:29:21.337Z,4.94
2018-01-04T08:31:47.436Z,4.94
2018-01-04T08:34:13.412Z,5.00
2018-01-04T08:36:39.426Z,5.00
2018-01-04T08:39:05.451Z,5.03
2018-01-04T08:41:31.482Z,5.03
2018-01-04T08:43:57.529Z,5.06
2018-01-04T08:46:23.549Z,5.09
2018-01-04T08:48:49.584Z,5.12
2018-01-04T08:51:15.586Z,5.16
2018-01-04T08:53:41.668Z,5.17
2018-01-04T08:56:07.692Z,5.21
2018-01-04T08:58:33.686Z,5.22
2018-01-04T09:00:59.757Z,5.27
2018-01-04T09:03:25.787Z,5.27
2018-01-04T09:05:51.874Z,5.27
2018-01-04T09:08:17.905Z,5.31
2018-01-04T09:10:43.950Z,5.34
2018-01-04T09:13:09.969Z,5.33
2018-01-04T09:15:36.041Z,5.33
2018-01-04T09:18:02.101Z,5.38
2018-01-04T09:20:28.073Z,5.40
2018-01-04T09:22:54.086Z,5.43
2018-01-04T09:25:20.084Z,5.46
2018-01-04T09:27:46.076Z,5.50
2018-01-04T09:30:12.121Z,5.50
2018-01-04T09:32:38.153Z,5.55
2018-01-04T09:35:04.221Z,5.58
2018-01-04T09:37:30.253Z,5.53
2018-01-04T09:39:56.249Z,5.55
2018-01-04T09:42:22.314Z,5.61
2018-01-04T09:44:48.393Z,5.63
2018-01-04T09:47:14.408Z,5.67
2018-01-04T09:49:40.486Z,5.71
2018-01-04T09:52:07.549Z,5.76
2018-01-04T09:54:33.612Z,5.82
2018-01-04T09:56:59.632Z,5.74
2018-01-04T09:59:25.648Z,5.78
2018-01-04T10:01:51.654Z,5.84
2018-01-04T10:04:17.664Z,5.85
2018-01-04T10:06:43.732Z,5.90
2018-01-04T10:09:09.761Z,6.00
2018-01-04T10:11:35.801Z,5.97
2018-01-04T10:14:01.837Z,6.04
2018-01-04T10:16:27.860Z,6.04
2018-01-04T10:18:53.893Z,5.97
2018-01-04T10:21:19.896Z,6.01
2018-01-04T10:23:45.993Z,5.98
2018-01-04T10:26:12.048Z,5.96
2018-01-04T10:28:38.091Z,5.98
2018-01-04T10:31:04.381Z,6.00
2018-01-04T10:33:30.525Z,5.95
2018-01-04T10:35:56.513Z,5.95
2018-01-04T10:38:22.540Z,6.00
2018-01-04T10:40:48.593Z,5.96
2018-01-04T10:43:14.638Z,5.96
2018-01-04T10:45:40.612Z,6.00
2018-01-04T10:48:06.776Z,5.99
2018-01-04T10:50:32.785Z,6.00
2018-01-04T10:52:58.897Z,6.05
2018-01-04T10:55:24.948Z,6.05
2018-01-04T10:57:50.985Z,6.10
2018-01-04T11:00:17.037Z,6.16
2018-01-04T11:02:43.084Z,6.18
2018-01-04T11:05:09.138Z,6.31
2018-01-04T11:07:35.244Z,6.33
2018-01-04T11:10:01.298Z,6.30
2018-01-04T11:12:27.433Z,6.30
2018-01-04T11:14:53.441Z,6.34
2018-01-04T11:17:19.513Z,6.36
2018-01-04T11:19:45.684Z,6.33
2018-01-04T11:22:11.764Z,6.25
2018-01-04T11:24:37.863Z,6.29
2018-01-04T11:27:03.849Z,6.32
2018-01-04T11:29:29.905Z,6.35
2018-01-04T11:31:55.861Z,6.36
2018-01-04T11:34:21.973Z,6.41
2018-01-04T11:36:47.959Z,6.44
2018-01-04T11:39:14.033Z,6.47
2018-01-04T11:41:40.045Z,6.47
2018-01-04T11:44:06.096Z,6.34
2018-01-04T11:46:32.173Z,6.34
2018-01-04T11:48:58.216Z,6.31
2018-01-04T11:51:24.241Z,6.28
2018-01-04T11:53:50.260Z,6.24
2018-01-04T11:56:16.314Z,6.24
2018-01-04T11:58:42.377Z,6.26
2018-01-04T12:01:08.410Z,6.28
2018-01-04T12:03:34.436Z,6.27
2018-01-04T12:06:00.485Z,6.21
2018-01-04T12:08:26.534Z,6.21
2018-01-04T12:10:52.628Z,6.15
2018-01-04T12:13:18.650Z,6.15
2018-01-04T12:15:44.673Z,6.07
2018-01-04T12:18:10.681Z,6.15
2018-01-04T12:20:36.740Z,6.18
2018-01-04T12:23:02.829Z,6.14
2018-01-04T12:25:28.832Z,6.08
2018-01-04T12:27:54.897Z,6.05
2018-01-04T12:30:20.934Z,6.04
2018-01-04T12:32:46.967Z,6.06
2018-01-04T12:35:13.009Z,6.03
2018-01-04T12:37:39.043Z,6.05
2018-01-04T12:40:05.104Z,6.08
2018-01-04T12:42:31.151Z,6.06
2018-01-04T12:44:57.211Z,6.01
2018-01-04T12:47:23.248Z,6.02
2018-01-04T12:49:49.317Z,5.95
2018-01-04T12:52:15.453Z,5.95
2018-01-04T12:54:41.510Z,5.95
2018-01-04T12:57:07.608Z,5.92
2018-01-04T12:59:33.642Z,5.90
2018-01-04T13:01:59.657Z,5.85
2018-01-04T13:04:25.685Z,5.81
2018-01-04T13:06:51.680Z,5.74
2018-01-04T13:09:17.688Z,5.70
2018-01-04T13:11:43.769Z,5.70
2018-01-04T13:14:09.792Z,5.63
2018-01-04T13:16:35.833Z,5.69
2018-01-04T13:19:01.858Z,5.66
2018-01-04T13:21:27.956Z,5.62
2018-01-04T13:23:53.913Z,5.62
2018-01-04T13:26:20.439Z,5.63
2018-01-04T13:28:46.793Z,5.61
2018-01-04T13:31:13.065Z,5.63
2018-01-04T13:33:39.134Z,5.66
2018-01-04T13:36:05.134Z,5.61
2018-01-04T13:38:31.509Z,5.57
2018-01-04T13:40:57.497Z,5.55
2018-01-04T13:43:23.512Z,5.51
2018-01-04T13:45:49.548Z,5.42
2018-01-04T13:48:15.604Z,5.44
2018-01-04T13:50:41.639Z,5.44
2018-01-04T13:53:07.743Z,5.48
2018-01-04T13:55:33.805Z,5.44
2018-01-04T13:57:59.817Z,5.28
2018-01-04T14:00:25.794Z,5.39
2018-01-04T14:02:51.832Z,5.37
2018-01-04T14:05:17.855Z,5.33
2018-01-04T14:07:43.916Z,5.31
2018-01-04T14:10:10.165Z,5.32
2018-01-04T14:12:36.236Z,5.39
2018-01-04T14:15:02.296Z,5.41
2018-01-04T14:17:28.406Z,5.47
2018-01-04T14:19:54.462Z,5.50
2018-01-04T14:22:20.685Z,5.53
2018-01-04T14:24:46.797Z,5.42
2018-01-04T14:27:12.894Z,5.42
2018-01-04T14:29:38.916Z,5.33
2018-01-04T14:32:04.906Z,5.31
2018-01-04T14:34:30.947Z,5.36
2018-01-04T14:36:56.996Z,5.37
2018-01-04T14:39:23.024Z,5.43
2018-01-04T14:41:49.033Z,5.41
2018-01-04T14:44:15.050Z,5.39
2018-01-04T14:46:41.033Z,5.39
2018-01-04T14:49:07.129Z,5.41
2018-01-04T14:51:33.212Z,5.41
2018-01-04T14:53:59.253Z,5.36
2018-01-04T14:56:25.356Z,5.39
2018-01-04T14:58:51.400Z,5.31
2018-01-04T15:01:17.485Z,5.34
2018-01-04T15:03:43.549Z,5.28
2018-01-04T15:06:09.556Z,5.32
2018-01-04T15:08:35.573Z,5.35
2018-01-04T15:11:01.581Z,5.39
2018-01-04T15:13:27.743Z,5.37
2018-01-04T15:15:53.752Z,5.31
2018-01-04T15:18:19.779Z,5.36
2018-01-04T15:20:45.815Z,5.31
2018-01-04T15:23:11.839Z,5.33
2018-01-04T15:25:37.884Z,5.32
2018-01-04T15:28:03.908Z,5.34
2018-01-04T15:30:29.917Z,5.35
2018-01-04T15:33:03.085Z,5.36
2018-01-04T15:35:29.153Z,5.31
2018-01-04T15:37:55.213Z,5.29
2018-01-04T15:40:21.298Z,5.35
2018-01-04T15:42:47.281Z,5.27
2018-01-04T15:45:13.405Z,5.25
2018-01-04T15:47:39.428Z,5.26
2018-01-04T15:50:05.437Z,5.37
2018-01-04T15:52:31.441Z,5.29
2018-01-04T15:54:57.456Z,5.37
2018-01-04T15:57:23.484Z,5.39
2018-01-04T15:59:49.512Z,5.42
2018-01-04T16:02:15.545Z,5.42
2018-01-04T16:04:41.604Z,5.41
2018-01-04T16:07:07.624Z,5.34
2018-01-04T16:09:39.965Z,5.33
2018-01-04T16:12:06.707Z,5.38
2018-01-04T16:14:32.867Z,5.30
2018-01-04T16:19:57.629Z,5.37
2018-01-04T16:22:50.461Z,5.36
2018-01-04T16:25:33.364Z,5.34
2018-01-04T16:31:01.150Z,5.40
2018-01-04T16:33:27.351Z,5.36
2018-01-04T16:35:53.361Z,5.27
2018-01-04T16:38:19.374Z,5.30
2018-01-04T16:40:45.433Z,5.24
2018-01-04T16:43:11.472Z,5.24
2018-01-04T16:45:37.555Z,5.27
2018-01-04T16:48:03.573Z,5.22
2018-01-04T16:50:29.577Z,5.25
2018-01-04T16:52:55.888Z,5.27
2018-01-04T16:55:21.907Z,5.28
2018-01-04T16:57:47.906Z,5.35
2018-01-04T17:00:13.937Z,5.38
2018-01-04T17:02:39.985Z,5.34
2018-01-04T17:05:06.038Z,5.30
2018-01-04T17:07:32.093Z,5.21
2018-01-04T17:09:58.157Z,5.20
2018-01-04T17:12:24.183Z,5.31
2018-01-04T17:14:50.143Z,5.31
2018-01-04T17:17:16.233Z,5.32
2018-01-04T17:19:42.269Z,5.36
2018-01-04T17:22:08.316Z,5.37
2018-01-04T17:24:34.345Z,5.39
2018-01-04T17:27:00.407Z,5.39
2018-01-04T17:29:26.468Z,5.45
2018-01-04T17:31:52.893Z,5.41
2018-01-04T17:34:18.941Z,5.46
2018-01-04T17:36:44.994Z,5.36
2018-01-04T17:39:11.053Z,5.38
2018-01-04T17:41:37.095Z,5.44
2018-01-04T17:44:03.110Z,5.41
2018-01-04T17:46:29.171Z,5.49
2018-01-04T17:48:55.191Z,5.53
2018-01-04T17:51:21.196Z,5.57
2018-01-04T17:53:47.249Z,5.59
2018-01-04T17:56:13.296Z,5.61
2018-01-04T17:58:39.321Z,5.60
2018-01-04T18:01:05.496Z,5.67
2018-01-04T18:03:32.165Z,5.57
2018-01-04T18:05:58.240Z,5.61
2018-01-04T18:08:24.261Z,5.69
2018-01-04T18:10:50.984Z,5.64
2018-01-04T18:13:17.047Z,5.71
2018-01-04T18:15:43.025Z,5.64
2018-01-04T18:18:09.106Z,5.72
2018-01-04T18:20:35.160Z,5.76
2018-01-04T18:23:01.197Z,5.71
2018-01-04T18:25:27.254Z,5.79
2018-01-04T18:27:53.272Z,5.83
2018-01-04T18:30:19.342Z,5.79
2018-01-04T18:32:45.338Z,5.87
2018-01-04T18:35:11.380Z,5.89
2018-01-04T18:37:37.418Z,5.96
2018-01-04T18:40:03.498Z,6.00
2018-01-04T18:42:29.869Z,5.98
2018-01-04T18:44:56.000Z,6.14
2018-01-04T18:47:22.058Z,6.25
2018-01-04T18:49:48.208Z,6.22
2018-01-04T18:52:14.576Z,6.22
2018-01-04T18:54:40.661Z,6.12
2018-01-04T18:57:06.716Z,6.33
2018-01-04T19:02:05.605Z,6.42
2018-01-04T19:04:31.689Z,6.38
2018-01-04T19:06:57.789Z,6.33
2018-01-04T19:09:23.928Z,6.40
2018-01-04T19:11:49.954Z,6.34
2018-01-04T19:14:16.359Z,6.46
2018-01-04T19:16:42.404Z,6.42
2018-01-04T19:19:08.482Z,6.43
2018-01-04T19:21:34.542Z,6.51
2018-01-04T19:24:00.631Z,6.53
2018-01-04T19:26:27.474Z,6.63
2018-01-04T19:28:53.485Z,6.61
2018-01-04T19:31:19.605Z,6.60
2018-01-04T19:33:45.681Z,6.67
2018-01-04T19:36:11.728Z,6.72
2018-01-04T19:38:37.761Z,6.77
2018-01-04T19:41:03.848Z,6.75
2018-01-04T19:43:29.933Z,6.82
2018-01-04T19:45:55.997Z,6.78
2018-01-04T19:48:22.016Z,6.79
2018-01-04T19:50:48.043Z,6.82
2018-01-04T19:53:14.571Z,6.85
2018-01-04T19:55:40.649Z,6.85
2018-01-04T19:58:06.656Z,6.87
2018-01-04T20:00:32.680Z,6.87
2018-01-04T20:02:58.785Z,6.92
2018-01-04T20:05:24.810Z,6.94
2018-01-04T20:07:51.309Z,6.91
2018-01-04T20:10:17.363Z,6.71
2018-01-04T20:12:43.437Z,6.63
2018-01-04T20:15:09.679Z,6.59
2018-01-04T20:17:35.700Z,6.79
2018-01-04T20:20:01.806Z,6.85
2018-01-04T20:22:27.925Z,6.93
2018-01-04T20:24:54.021Z,6.80
2018-01-04T20:27:20.121Z,6.90
2018-01-04T20:29:46.174Z,7.06
2018-01-04T20:32:12.452Z,7.15
2018-01-04T20:34:38.521Z,7.26
2018-01-04T20:37:04.614Z,7.30
2018-01-04T20:39:30.695Z,7.39
2018-01-04T20:41:56.734Z,7.56
2018-01-04T20:44:22.942Z,7.67
2018-01-04T20:46:49.067Z,7.69
2018-01-04T20:49:15.231Z,7.75
2018-01-04T20:51:41.357Z,7.78
2018-01-04T20:54:07.410Z,7.80
2018-01-04T20:56:33.497Z,7.82
2018-01-04T20:58:59.544Z,7.79
2018-01-04T21:01:25.624Z,7.85
2018-01-04T21:03:51.756Z,7.86
2018-01-04T21:06:17.862Z,7.86
2018-01-04T21:08:43.967Z,7.83
2018-01-04T21:11:10.150Z,7.91
2018-01-04T21:13:36.245Z,7.93
2018-01-04T21:16:02.505Z,8.00
2018-01-04T21:18:28.574Z,8.03
2018-01-04T21:20:54.666Z,8.04
2018-01-04T21:23:20.674Z,7.91
2018-01-04T21:25:46.762Z,7.69
2018-01-04T21:28:12.938Z,7.85
2018-01-04T21:30:39.856Z,7.92
2018-01-04T21:33:05.966Z,7.96
2018-01-04T21:35:32.037Z,8.02
2018-01-04T21:37:58.477Z,8.11
2018-01-04T21:40:24.581Z,8.13
2018-01-04T21:42:50.672Z,8.20
2018-01-04T21:45:16.834Z,8.09
2018-01-04T21:47:42.918Z,8.21
2018-01-04T21:50:09.106Z,8.21
2018-01-04T21:52:35.210Z,8.33
2018-01-04T21:55:01.290Z,8.43
2018-01-04T21:57:27.334Z,8.43
2018-01-04T21:59:53.501Z,8.50
2018-01-04T22:02:19.592Z,8.38
2018-01-04T22:04:46.000Z,8.53
2018-01-04T22:07:12.118Z,8.50
2018-01-04T22:09:38.145Z,8.57
2018-01-04T22:12:04.231Z,8.69
2018-01-04T22:14:30.299Z,8.66
2018-01-04T22:16:56.476Z,8.66
2018-01-04T22:19:22.771Z,8.77
2018-01-04T22:21:48.795Z,8.74
2018-01-04T22:24:15.024Z,8.77
2018-01-04T22:26:41.075Z,8.69
2018-01-04T22:29:07.117Z,8.70
2018-01-04T22:31:33.195Z,8.67
2018-01-04T22:33:59.326Z,8.61
2018-01-04T22:36:25.420Z,8.61
2018-01-04T22:38:51.465Z,8.56
2018-01-04T22:41:17.505Z,8.52
2018-01-04T22:43:43.585Z,8.55
2018-01-04T22:46:09.617Z,8.43
2018-01-04T22:48:35.702Z,8.44
2018-01-04T22:51:01.818Z,8.46
2018-01-04T22:53:27.846Z,8.54
2018-01-04T22:55:53.941Z,8.51
2018-01-04T22:58:20.026Z,8.40
2018-01-04T23:00:48.017Z,8.46
2018-01-04T23:03:14.217Z,8.33
2018-01-04T23:05:40.284Z,8.46
2018-01-04T23:08:06.805Z,8.59
2018-01-04T23:10:32.825Z,8.65
2018-01-04T23:12:59.906Z,8.66
2018-01-04T23:15:25.945Z,8.66
2018-01-04T23:17:52.014Z,8.66
2018-01-04T23:20:18.154Z,8.67
2018-01-04T23:22:44.205Z,8.66
2018-01-04T23:25:10.361Z,8.68
2018-01-04T23:27:36.381Z,8.68
2018-01-04T23:30:02.467Z,8.64
2018-01-04T23:32:28.489Z,8.68
2018-01-04T23:34:54.529Z,8.67
2018-01-04T23:37:20.586Z,8.59
2018-01-04T23:39:46.658Z,8.62
2018-01-04T23:42:13.052Z,8.64
2018-01-04T23:44:39.065Z,8.56
2018-01-04T23:47:05.230Z,8.59
2018-01-04T23:49:31.319Z,8.51
2018-01-04T23:51:57.397Z,8.49
2018-01-04T23:54:23.433Z,8.46
2018-01-04T23:56:49.579Z,8.46
2018-01-04T23:59:15.661Z,8.33
